Time;durP1;ratioP1;P1;durP2;ratioP2;P2;SDS_P1;SDS_P2;PMS_P1;PMS_P2;Temp;Humidity;BMP_temperature;BMP_pressure;BME280_temperature;BME280_humidity;BME280_pressure;Samples;Min_cycle;Max_cycle;Signal;HPM_P1;HPM_P2
2021/11/25 00:00:43;;;;;;;11.80;6.28;;;8.80;82.10;;;;;;5012426;28;20559;-73
2021/11/25 00:03:09;;;;;;;9.60;5.70;;;8.70;81.20;;;;;;5015571;28;20514;-73
2021/11/25 00:05:35;;;;;;;10.45;5.22;;;8.70;82.10;;;;;;5007542;28;20022;-73
2021/11/25 00:08:04;;;;;;;9.70;5.85;;;8.70;82.20;;;;;;5013119;28;20091;-73
2021/11/25 00:10:31;;;;;;;9.25;5.25;;;8.70;82.10;;;;;;5009965;28;21008;-73
2021/11/25 00:12:57;;;;;;;10.73;5.57;;;8.70;81.80;;;;;;5028030;28;20037;-73
2021/11/25 00:15:23;;;;;;;12.32;5.43;;;8.80;81.30;;;;;;5004566;28;20505;-73
2021/11/25 00:17:49;;;;;;;10.63;6.00;;;8.80;80.50;;;;;;5009725;28;20140;-73
2021/11/25 00:20:16;;;;;;;11.23;6.80;;;8.70;80.80;;;;;;5025282;28;20025;-73
2021/11/25 00:22:42;;;;;;;14.35;6.47;;;8.80;81.50;;;;;;5002856;28;20641;-73
2021/11/25 00:25:10;;;;;;;10.55;5.80;;;8.80;81.90;;;;;;5014366;28;20036;-73
2021/11/25 00:27:37;;;;;;;8.48;5.45;;;8.80;81.00;;;;;;5010834;28;20029;-73
2021/11/25 00:30:07;;;;;;;8.50;5.70;;;8.80;80.60;;;;;;5013914;28;20378;-73
2021/11/25 00:32:34;;;;;;;9.43;5.53;;;8.70;81.80;;;;;;5005775;28;20033;-72
2021/11/25 00:35:00;;;;;;;9.60;5.40;;;8.70;82.20;;;;;;5011050;28;20092;-73
2021/11/25 00:37:26;;;;;;;8.68;5.80;;;8.80;82.90;;;;;;5016590;28;20092;-73
2021/11/25 00:39:52;;;;;;;10.85;5.70;;;8.80;82.40;;;;;;5019966;28;20671;-73
2021/11/25 00:42:18;;;;;;;10.88;5.90;;;8.80;82.90;;;;;;5009379;28;20037;-73
2021/11/25 00:44:44;;;;;;;10.05;5.78;;;8.80;82.60;;;;;;5014080;28;20021;-73
2021/11/25 00:47:10;;;;;;;9.45;6.22;;;8.80;82.30;;;;;;5016987;28;20761;-73
2021/11/25 00:49:36;;;;;;;9.93;5.55;;;8.80;82.00;;;;;;5006055;28;20403;-73
2021/11/25 00:52:02;;;;;;;11.23;5.88;;;8.80;81.60;;;;;;5012655;28;20152;-73
2021/11/25 00:54:28;;;;;;;10.13;5.85;;;8.80;81.50;;;;;;5014221;28;20030;-73
2021/11/25 00:56:54;;;;;;;10.60;6.28;;;8.80;82.30;;;;;;5009316;28;20116;-73
2021/11/25 00:59:19;;;;;;;9.52;5.63;;;8.80;82.60;;;;;;5013445;28;20482;-73
2021/11/25 01:01:45;;;;;;;8.45;5.63;;;8.80;83.00;;;;;;5011266;28;20040;-73
2021/11/25 01:04:11;;;;;;;9.77;5.50;;;8.80;83.20;;;;;;5004882;28;20594;-73
2021/11/25 01:06:37;;;;;;;7.80;5.05;;;8.80;82.50;;;;;;5009093;28;20099;-73
2021/11/25 01:09:03;;;;;;;11.73;5.65;;;8.70;81.50;;;;;;5012673;28;20025;-73
2021/11/25 01:11:29;;;;;;;7.53;4.72;;;8.70;81.80;;;;;;5014391;28;20030;-73
2021/11/25 01:13:55;;;;;;;9.65;4.95;;;8.70;81.40;;;;;;5012639;28;20710;-73
2021/11/25 01:16:22;;;;;;;6.93;4.03;;;8.70;81.60;;;;;;5007945;28;20471;-73
2021/11/25 01:18:48;;;;;;;6.00;4.22;;;8.60;81.20;;;;;;5006621;28;20046;-73
2021/11/25 01:21:14;;;;;;;6.97;4.40;;;8.60;81.00;;;;;;5016595;28;20034;-76
2021/11/25 01:23:41;;;;;;;5.80;3.55;;;8.60;80.50;;;;;;5018649;28;20034;-76
2021/11/25 01:26:06;;;;;;;7.75;4.15;;;8.60;78.00;;;;;;5014752;28;20026;-76
2021/11/25 01:28:32;;;;;;;6.22;4.07;;;8.60;78.60;;;;;;5013585;28;20034;-76
2021/11/25 01:31:03;;;;;;;7.05;3.85;;;8.60;78.80;;;;;;5017347;28;20038;-76
2021/11/25 01:33:31;;;;;;;4.90;3.65;;;8.60;80.10;;;;;;5036145;28;20045;-76
2021/11/25 01:35:58;;;;;;;8.45;4.10;;;8.60;80.20;;;;;;5014097;28;20026;-76
2021/11/25 01:38:24;;;;;;;6.07;4.07;;;8.60;80.20;;;;;;5019455;28;20032;-76
2021/11/25 01:40:53;;;;;;;5.32;3.60;;;8.60;80.10;;;;;;5009985;28;20037;-75
2021/11/25 01:43:22;;;;;;;6.75;3.72;;;8.60;81.00;;;;;;5033258;28;20037;-75
2021/11/25 01:45:49;;;;;;;8.88;4.32;;;8.60;80.30;;;;;;5021131;28;20037;-75
2021/11/25 01:48:17;;;;;;;7.30;3.70;;;8.60;79.80;;;;;;5032703;28;20179;-75
2021/11/25 01:50:44;;;;;;;6.70;4.10;;;8.60;80.20;;;;;;5034082;28;20109;-75
2021/11/25 01:53:13;;;;;;;7.47;4.13;;;8.60;80.00;;;;;;5012012;28;20049;-78
2021/11/25 01:55:40;;;;;;;7.15;3.83;;;8.70;78.80;;;;;;5013687;28;20521;-77
2021/11/25 01:58:06;;;;;;;5.22;3.45;;;8.60;79.40;;;;;;5008184;28;20396;-78
2021/11/25 02:00:37;;;;;;;6.07;4.20;;;8.60;79.90;;;;;;5010194;28;20485;-77
2021/11/25 02:03:05;;;;;;;7.03;3.78;;;8.60;80.00;;;;;;5015448;28;20045;-77
2021/11/25 02:05:32;;;;;;;6.38;4.10;;;8.60;80.40;;;;;;5012576;28;20025;-77
2021/11/25 02:07:58;;;;;;;6.15;4.10;;;8.60;80.20;;;;;;5019383;28;20029;-77
2021/11/25 02:10:24;;;;;;;6.40;4.20;;;8.60;79.50;;;;;;5012105;28;20040;-77
2021/11/25 02:12:50;;;;;;;5.95;4.20;;;8.50;78.90;;;;;;5005997;28;20045;-77
2021/11/25 02:15:17;;;;;;;5.85;4.10;;;8.50;79.60;;;;;;5011981;28;20032;-77
2021/11/25 02:17:43;;;;;;;6.72;4.25;;;8.50;79.30;;;;;;5008511;28;20061;-77
2021/11/25 02:20:11;;;;;;;7.63;4.93;;;8.50;78.80;;;;;;5012715;28;20131;-76
2021/11/25 02:22:38;;;;;;;7.47;4.80;;;8.50;78.90;;;;;;5020467;28;20037;-76
2021/11/25 02:25:07;;;;;;;7.20;4.93;;;8.50;79.40;;;;;;5017537;28;20501;-76
2021/11/25 02:27:32;;;;;;;6.55;4.50;;;8.40;78.50;;;;;;5019031;28;20037;-75
2021/11/25 02:29:58;;;;;;;8.77;4.95;;;8.40;75.80;;;;;;5011512;28;20033;-76
2021/11/25 02:32:39;;;;;;;7.60;4.78;;;8.40;77.60;;;;;;5003294;28;20033;-76
2021/11/25 02:35:10;;;;;;;7.07;4.78;;;8.40;78.20;;;;;;5011556;28;20042;-76
2021/11/25 02:37:36;;;;;;;10.15;5.30;;;8.40;78.00;;;;;;5011927;28;20060;-75
2021/11/25 02:40:24;;;;;;;9.18;5.85;;;8.40;78.50;;;;;;5011316;28;20118;-76
2021/11/25 02:42:52;;;;;;;7.35;5.20;;;8.40;78.30;;;;;;5010335;28;20773;-76
2021/11/25 02:45:20;;;;;;;7.97;6.03;;;8.40;77.80;;;;;;5026611;28;20026;-76
2021/11/25 02:47:46;;;;;;;9.30;5.97;;;8.40;78.20;;;;;;5011772;28;20668;-76
2021/11/25 02:50:15;;;;;;;8.40;5.97;;;8.40;77.70;;;;;;5014557;28;20135;-75
2021/11/25 02:52:41;;;;;;;7.68;5.53;;;8.30;75.50;;;;;;5009078;28;20033;-76
2021/11/25 02:55:09;;;;;;;9.27;5.55;;;8.30;76.00;;;;;;5012279;28;20045;-76
2021/11/25 02:57:36;;;;;;;7.90;5.47;;;8.30;75.00;;;;;;5012115;28;20038;-76
2021/11/25 03:00:06;;;;;;;8.23;6.05;;;8.30;74.30;;;;;;5007303;28;20032;-76
2021/11/25 03:02:32;;;;;;;8.07;5.63;;;8.30;76.30;;;;;;5008393;28;20034;-76
2021/11/25 03:04:58;;;;;;;8.48;6.00;;;8.20;77.00;;;;;;5015345;28;20028;-76
2021/11/25 03:07:24;;;;;;;8.45;5.75;;;8.20;76.60;;;;;;5007456;28;20030;-76
2021/11/25 03:09:49;;;;;;;11.25;6.57;;;8.20;76.30;;;;;;5029210;28;20033;-76
2021/11/25 03:12:15;;;;;;;10.48;6.80;;;8.20;77.30;;;;;;5013560;28;20715;-76
2021/11/25 03:14:43;;;;;;;10.70;6.75;;;8.20;77.30;;;;;;4996680;28;20442;-76
2021/11/25 03:17:09;;;;;;;8.43;6.50;;;8.10;75.70;;;;;;5017273;28;20026;-76
2021/11/25 03:19:34;;;;;;;10.02;6.15;;;8.00;75.00;;;;;;5009139;28;20506;-76
2021/11/25 03:22:00;;;;;;;12.02;7.03;;;8.00;75.10;;;;;;5017882;28;20033;-75
2021/11/25 03:24:26;;;;;;;10.32;6.80;;;7.90;75.40;;;;;;5013748;28;20128;-75
2021/11/25 03:26:52;;;;;;;9.68;6.93;;;7.90;76.20;;;;;;5029468;28;20042;-76
2021/11/25 03:29:18;;;;;;;13.60;7.78;;;7.80;76.50;;;;;;5031008;28;20497;-75
2021/11/25 03:31:44;;;;;;;12.55;7.85;;;7.90;75.50;;;;;;5010774;28;20692;-75
2021/11/25 03:34:10;;;;;;;11.40;7.88;;;7.80;77.00;;;;;;5012513;28;20037;-76
2021/11/25 03:36:35;;;;;;;12.30;8.40;;;7.80;73.70;;;;;;5004840;28;20124;-76
2021/11/25 03:39:01;;;;;;;13.38;8.02;;;7.80;73.30;;;;;;5008727;28;20040;-76
2021/11/25 03:41:27;;;;;;;12.75;7.97;;;7.70;74.40;;;;;;5012582;28;20034;-75
2021/11/25 03:43:53;;;;;;;10.63;7.47;;;7.70;73.60;;;;;;5013490;28;20555;-76
2021/11/25 03:46:20;;;;;;;12.32;8.15;;;7.70;72.80;;;;;;5010182;28;20109;-75
2021/11/25 03:48:46;;;;;;;12.40;8.52;;;7.60;74.60;;;;;;5013528;28;20030;-75
2021/11/25 03:51:12;;;;;;;15.10;9.70;;;7.60;74.50;;;;;;5013781;28;20103;-76
2021/11/25 03:53:41;;;;;;;15.52;9.32;;;7.60;71.90;;;;;;5018053;28;20513;-76
2021/11/25 03:56:07;;;;;;;14.57;9.35;;;7.50;74.30;;;;;;5014828;28;20025;-75
2021/11/25 03:58:33;;;;;;;12.25;8.50;;;7.50;75.00;;;;;;5006263;28;20095;-76
2021/11/25 04:00:59;;;;;;;13.43;9.38;;;7.60;75.30;;;;;;5032232;28;20132;-76
2021/11/25 04:03:25;;;;;;;14.82;9.55;;;7.60;75.60;;;;;;5007968;28;20034;-76
2021/11/25 04:05:52;;;;;;;17.40;9.13;;;7.60;73.60;;;;;;5008052;28;20033;-76
2021/11/25 04:08:18;;;;;;;14.90;9.30;;;7.60;73.10;;;;;;5013436;28;20026;-76
2021/11/25 04:10:45;;;;;;;15.25;9.90;;;7.60;73.10;;;;;;5006534;28;20076;-76
2021/11/25 04:13:11;;;;;;;14.77;9.48;;;7.60;75.10;;;;;;5015313;28;20035;-75
2021/11/25 04:15:37;;;;;;;14.35;9.38;;;7.60;74.30;;;;;;5019180;28;20037;-75
2021/11/25 04:18:03;;;;;;;18.50;10.63;;;7.60;75.30;;;;;;5016510;28;20029;-76
2021/11/25 04:20:30;;;;;;;15.05;9.75;;;7.70;75.20;;;;;;5013122;28;20111;-76
2021/11/25 04:22:58;;;;;;;14.57;10.13;;;7.70;74.20;;;;;;5021915;28;20025;-76
2021/11/25 04:25:24;;;;;;;16.63;10.05;;;7.70;73.10;;;;;;5022590;28;20060;-76
2021/11/25 04:27:51;;;;;;;18.23;10.77;;;7.70;74.10;;;;;;5021370;28;20770;-76
2021/11/25 04:35:32;;;;;;;14.52;9.63;;;7.60;71.60;;;;;;5016577;28;20609;-76
2021/11/25 04:38:03;;;;;;;16.65;10.00;;;7.50;72.10;;;;;;5020802;28;20501;-76
2021/11/25 04:40:34;;;;;;;16.83;10.13;;;7.50;74.20;;;;;;5012833;28;20711;-76
2021/11/25 04:43:00;;;;;;;16.17;9.43;;;7.50;75.10;;;;;;5011022;28;20029;-76
2021/11/25 04:45:26;;;;;;;18.98;10.93;;;7.50;74.00;;;;;;5018369;28;20044;-75
2021/11/25 04:47:52;;;;;;;14.57;9.27;;;7.60;74.30;;;;;;5011392;28;20041;-76
2021/11/25 04:50:20;;;;;;;16.85;10.43;;;7.60;73.90;;;;;;5013641;28;20044;-76
2021/11/25 04:52:46;;;;;;;19.05;10.90;;;7.60;73.30;;;;;;5013527;28;20062;-76
2021/11/25 04:55:12;;;;;;;18.88;11.82;;;7.60;74.20;;;;;;5022444;28;20029;-76
2021/11/25 04:57:39;;;;;;;19.08;11.23;;;7.60;73.80;;;;;;5019075;28;20120;-76
2021/11/25 05:00:07;;;;;;;22.05;11.45;;;7.60;74.00;;;;;;5006923;28;20489;-76
2021/11/25 05:02:33;;;;;;;17.65;11.52;;;7.60;72.10;;;;;;5023316;28;20034;-76
2021/11/25 05:04:59;;;;;;;19.55;11.68;;;7.50;73.30;;;;;;5007224;28;20750;-76
2021/11/25 05:07:25;;;;;;;17.60;11.00;;;7.50;73.80;;;;;;5017432;28;20034;-75
2021/11/25 05:09:51;;;;;;;20.17;12.10;;;7.50;74.30;;;;;;5015992;28;20523;-76
2021/11/25 05:12:17;;;;;;;20.77;12.93;;;7.50;74.20;;;;;;5016996;28;21275;-76
2021/11/25 05:14:43;;;;;;;21.50;12.60;;;7.50;75.00;;;;;;5032136;28;20021;-75
2021/11/25 05:17:09;;;;;;;20.23;11.95;;;7.50;75.00;;;;;;5008545;28;20052;-76
2021/11/25 05:19:35;;;;;;;22.17;12.30;;;7.50;73.50;;;;;;5013621;28;20779;-72
2021/11/25 05:22:01;;;;;;;21.30;12.27;;;7.40;75.00;;;;;;5009231;28;20154;-72
2021/11/25 05:24:27;;;;;;;22.23;12.32;;;7.50;74.20;;;;;;5006048;28;20026;-72
2021/11/25 05:26:53;;;;;;;17.90;11.13;;;7.50;74.00;;;;;;5013624;28;20808;-72
2021/11/25 05:29:21;;;;;;;18.00;10.77;;;7.50;74.40;;;;;;5017180;28;20510;-72
2021/11/25 05:31:48;;;;;;;19.23;11.55;;;7.40;74.80;;;;;;5016569;28;20460;-72
2021/11/25 05:34:16;;;;;;;20.33;11.98;;;7.50;74.40;;;;;;5018587;28;20062;-72
2021/11/25 05:36:43;;;;;;;20.90;13.18;;;7.50;75.50;;;;;;5011978;28;20045;-72
2021/11/25 05:39:10;;;;;;;18.45;11.60;;;7.50;74.90;;;;;;5014239;28;20034;-73
2021/11/25 05:41:37;;;;;;;19.73;12.60;;;7.40;75.30;;;;;;5009631;28;20100;-72
2021/11/25 05:44:05;;;;;;;21.05;12.43;;;7.40;74.60;;;;;;5007438;28;20028;-72
2021/11/25 05:46:30;;;;;;;21.13;12.63;;;7.40;74.60;;;;;;5018558;28;20029;-72
2021/11/25 05:48:57;;;;;;;22.50;12.15;;;7.40;75.30;;;;;;5019198;28;20036;-72
2021/11/25 05:51:23;;;;;;;20.63;12.38;;;7.40;75.70;;;;;;5015294;28;20061;-72
2021/11/25 05:53:48;;;;;;;19.60;12.35;;;7.30;75.20;;;;;;5012910;28;20029;-72
2021/11/25 05:56:15;;;;;;;18.10;11.82;;;7.30;76.10;;;;;;5013819;28;20025;-72
2021/11/25 05:58:41;;;;;;;20.73;12.88;;;7.30;75.50;;;;;;5029912;28;20049;-72
2021/11/25 06:01:07;;;;;;;18.20;12.10;;;7.40;76.10;;;;;;5034271;28;20030;-72
2021/11/25 06:03:33;;;;;;;21.58;12.68;;;7.30;76.60;;;;;;5013369;28;20088;-72
2021/11/25 06:05:59;;;;;;;20.92;12.63;;;7.30;76.00;;;;;;5014441;28;20069;-75
2021/11/25 06:08:25;;;;;;;19.92;12.50;;;7.30;76.00;;;;;;5011864;28;20100;-75
2021/11/25 06:10:51;;;;;;;19.52;11.63;;;7.40;76.60;;;;;;5016491;28;20041;-76
2021/11/25 06:13:17;;;;;;;20.60;11.75;;;7.40;76.50;;;;;;5016102;28;20033;-75
2021/11/25 06:15:46;;;;;;;20.95;12.25;;;7.40;76.70;;;;;;5005017;28;20044;-76
2021/11/25 06:18:15;;;;;;;20.92;11.60;;;7.40;76.50;;;;;;5012357;28;20029;-76
2021/11/25 06:20:41;;;;;;;19.38;11.93;;;7.40;76.80;;;;;;5018980;28;20037;-75
2021/11/25 06:23:07;;;;;;;20.38;12.45;;;7.40;76.30;;;;;;5020522;28;20627;-76
2021/11/25 06:25:33;;;;;;;19.38;11.52;;;7.40;76.20;;;;;;5021632;28;20040;-77
2021/11/25 06:27:59;;;;;;;20.75;12.48;;;7.40;76.00;;;;;;5011638;28;20041;-77
2021/11/25 06:30:25;;;;;;;20.02;12.18;;;7.40;76.60;;;;;;5005218;28;20045;-77
2021/11/25 06:32:52;;;;;;;20.02;12.25;;;7.40;76.10;;;;;;5016134;28;20044;-75
2021/11/25 06:35:19;;;;;;;20.52;12.25;;;7.40;76.80;;;;;;5014592;28;20037;-75
2021/11/25 06:37:53;;;;;;;19.42;12.50;;;7.30;77.20;;;;;;5021897;28;20761;-76
2021/11/25 06:40:27;;;;;;;18.13;11.90;;;7.30;77.30;;;;;;5019267;28;20045;-76
2021/11/25 06:42:55;;;;;;;19.15;11.70;;;7.30;77.30;;;;;;5021201;28;20062;-76
2021/11/25 06:45:22;;;;;;;20.50;12.13;;;7.30;76.90;;;;;;5034033;28;20025;-76
2021/11/25 06:47:48;;;;;;;24.58;13.23;;;7.30;77.00;;;;;;5015077;28;20389;-76
2021/11/25 06:50:16;;;;;;;19.77;12.10;;;7.30;77.00;;;;;;5014862;28;20026;-76
2021/11/25 06:52:42;;;;;;;22.27;12.45;;;7.30;76.70;;;;;;5018743;28;20033;-76
2021/11/25 06:55:09;;;;;;;20.80;13.10;;;7.30;77.40;;;;;;5012147;28;20079;-76
2021/11/25 06:57:36;;;;;;;21.15;13.13;;;7.30;76.80;;;;;;5018462;28;20037;-76
2021/11/25 07:00:11;;;;;;;19.73;12.35;;;7.30;76.80;;;;;;5020693;28;20115;-76
2021/11/25 07:02:38;;;;;;;20.75;12.85;;;7.30;77.00;;;;;;5012467;28;20121;-76
2021/11/25 07:05:05;;;;;;;24.27;12.73;;;7.30;77.20;;;;;;5015759;28;20024;-76
2021/11/25 07:07:35;;;;;;;20.63;12.18;;;7.30;77.20;;;;;;5014840;28;20033;-76
2021/11/25 07:10:01;;;;;;;21.20;11.95;;;7.30;76.90;;;;;;5014827;28;20037;-76
2021/11/25 07:12:27;;;;;;;21.38;12.23;;;7.30;76.70;;;;;;5034224;28;20041;-76
2021/11/25 07:14:53;;;;;;;20.60;12.25;;;7.30;76.90;;;;;;5028601;28;20038;-76
2021/11/25 07:17:19;;;;;;;23.77;13.15;;;7.20;77.30;;;;;;5013769;28;20022;-76
2021/11/25 07:19:44;;;;;;;18.75;11.63;;;7.20;77.40;;;;;;5017091;28;20533;-73
2021/11/25 07:22:10;;;;;;;20.77;12.20;;;7.30;76.70;;;;;;5018773;28;20114;-72
2021/11/25 07:24:36;;;;;;;30.88;16.83;;;7.30;76.80;;;;;;5010191;28;20079;-73
2021/11/25 07:27:03;;;;;;;25.92;15.10;;;7.40;76.70;;;;;;5009733;28;20030;-72
2021/11/25 07:29:29;;;;;;;23.52;14.32;;;7.30;76.70;;;;;;5032650;28;20061;-72
2021/11/25 07:31:55;;;;;;;28.00;17.38;;;7.30;76.40;;;;;;5013778;28;20037;-72
2021/11/25 07:34:22;;;;;;;29.23;17.42;;;7.40;77.10;;;;;;5012975;28;20034;-72
2021/11/25 07:36:48;;;;;;;25.52;15.20;;;7.30;77.30;;;;;;5016719;28;20033;-72
2021/11/25 07:39:14;;;;;;;23.25;13.85;;;7.20;77.90;;;;;;5013974;28;20033;-72
2021/11/25 07:41:40;;;;;;;23.50;12.75;;;7.20;77.40;;;;;;5022136;28;20040;-73
2021/11/25 07:44:07;;;;;;;20.15;12.48;;;7.20;78.10;;;;;;5017336;28;20021;-72
2021/11/25 07:46:33;;;;;;;24.50;12.52;;;7.20;78.40;;;;;;5019218;28;20871;-72
2021/11/25 07:49:01;;;;;;;21.17;12.32;;;7.20;77.50;;;;;;5016665;28;20030;-73
2021/11/25 07:51:28;;;;;;;20.92;12.30;;;7.20;77.30;;;;;;5013784;28;20034;-73
2021/11/25 07:53:54;;;;;;;24.85;13.23;;;7.20;78.20;;;;;;5018785;28;20046;-72
2021/11/25 07:56:20;;;;;;;24.92;14.95;;;7.20;78.60;;;;;;5019368;28;20045;-72
2021/11/25 07:58:45;;;;;;;38.35;16.92;;;7.30;78.50;;;;;;5010002;28;20038;-74
2021/11/25 08:01:11;;;;;;;43.15;19.75;;;7.20;78.80;;;;;;5022435;28;20034;-72
2021/11/25 08:03:37;;;;;;;39.45;19.73;;;7.20;78.40;;;;;;5012785;28;20130;-72
2021/11/25 08:06:03;;;;;;;29.30;16.35;;;7.20;77.90;;;;;;5033044;28;20100;-72
2021/11/25 08:08:29;;;;;;;31.08;17.08;;;7.20;78.10;;;;;;5016844;28;20057;-74
2021/11/25 08:10:56;;;;;;;85.00;36.67;;;7.10;78.70;;;;;;5010779;28;20057;-75
2021/11/25 08:13:21;;;;;;;48.35;25.02;;;7.20;78.60;;;;;;5025407;28;20128;-74
2021/11/25 08:15:47;;;;;;;36.13;20.25;;;7.10;78.80;;;;;;5030928;28;20065;-74
2021/11/25 08:18:13;;;;;;;27.38;15.77;;;7.10;79.30;;;;;;5020576;28;20029;-74
2021/11/25 08:20:39;;;;;;;25.70;14.23;;;7.10;78.90;;;;;;5010795;28;20095;-74
2021/11/25 08:23:05;;;;;;;22.67;13.65;;;7.10;79.50;;;;;;5014232;28;20660;-74
2021/11/25 08:25:31;;;;;;;25.95;13.95;;;7.00;79.50;;;;;;5009782;28;20033;-74
2021/11/25 08:28:00;;;;;;;22.58;13.85;;;7.00;80.10;;;;;;5016991;28;20033;-74
2021/11/25 08:30:26;;;;;;;29.95;16.67;;;7.10;79.40;;;;;;5017943;28;20144;-74
2021/11/25 08:32:52;;;;;;;24.02;13.68;;;7.20;79.10;;;;;;5002078;28;20092;-74
2021/11/25 08:35:19;;;;;;;24.35;13.90;;;7.00;78.50;;;;;;5016305;28;20038;-74
2021/11/25 08:37:45;;;;;;;24.98;14.10;;;7.00;79.30;;;;;;5008631;28;20509;-74
2021/11/25 08:40:14;;;;;;;23.85;14.05;;;7.00;79.00;;;;;;5011084;28;20816;-73
2021/11/25 08:42:40;;;;;;;22.90;12.68;;;6.90;80.10;;;;;;5014173;28;20026;-75
2021/11/25 08:45:10;;;;;;;24.35;13.55;;;6.80;80.70;;;;;;5011081;28;20022;-75
2021/11/25 08:47:36;;;;;;;26.70;13.90;;;6.90;79.80;;;;;;5016974;28;20057;-76
2021/11/25 08:50:05;;;;;;;24.13;13.43;;;7.00;79.70;;;;;;5018376;28;20029;-75
2021/11/25 08:52:31;;;;;;;24.08;14.27;;;7.00;78.90;;;;;;5020004;28;20112;-73
2021/11/25 08:54:57;;;;;;;24.27;13.55;;;7.00;79.40;;;;;;5019765;28;20033;-73
2021/11/25 08:57:22;;;;;;;23.65;13.57;;;7.10;79.40;;;;;;5014798;28;20018;-73
2021/11/25 08:59:48;;;;;;;23.35;14.35;;;7.20;79.00;;;;;;5017155;28;20033;-74
2021/11/25 09:02:14;;;;;;;26.20;14.02;;;7.20;78.90;;;;;;5012092;28;20697;-73
2021/11/25 09:04:40;;;;;;;23.17;13.75;;;7.20;78.70;;;;;;5015591;28;20037;-73
2021/11/25 09:07:06;;;;;;;26.65;14.65;;;7.20;78.80;;;;;;5018578;28;20583;-74
2021/11/25 09:09:32;;;;;;;23.67;13.73;;;7.20;80.20;;;;;;5017998;28;20112;-74
2021/11/25 09:11:58;;;;;;;22.45;13.10;;;7.20;78.40;;;;;;5029895;28;20037;-80
2021/11/25 09:14:24;;;;;;;22.42;13.30;;;7.30;79.40;;;;;;5021719;28;20037;-75
2021/11/25 09:16:50;;;;;;;23.58;14.02;;;7.40;78.80;;;;;;5017900;28;20038;-74
2021/11/25 09:19:16;;;;;;;23.13;14.40;;;7.40;79.00;;;;;;5019990;28;20144;-75
2021/11/25 09:21:42;;;;;;;26.27;14.57;;;7.40;78.40;;;;;;5016502;28;20029;-76
2021/11/25 09:24:09;;;;;;;23.00;13.52;;;7.40;78.50;;;;;;5016307;28;20028;-72
2021/11/25 09:26:37;;;;;;;26.13;14.18;;;7.40;78.40;;;;;;5012846;28;20030;-76
2021/11/25 09:29:03;;;;;;;30.67;15.07;;;7.50;78.10;;;;;;5015731;28;20044;-77
2021/11/25 09:31:31;;;;;;;26.60;14.95;;;7.50;77.50;;;;;;5004135;28;20090;-77
2021/11/25 09:33:57;;;;;;;28.58;15.68;;;7.40;77.60;;;;;;5018175;28;20041;-77
2021/11/25 09:36:25;;;;;;;25.00;14.38;;;7.40;78.00;;;;;;5018240;28;20045;-78
2021/11/25 09:38:53;;;;;;;25.85;15.43;;;7.50;78.20;;;;;;5018249;28;20155;-70
2021/11/25 09:41:19;;;;;;;25.65;15.02;;;7.40;78.50;;;;;;5020696;28;20036;-75
2021/11/25 09:43:46;;;;;;;28.52;15.13;;;7.40;78.30;;;;;;5020449;28;20565;-76
2021/11/25 09:46:13;;;;;;;25.33;14.63;;;7.50;78.40;;;;;;5014742;28;20028;-76
2021/11/25 09:48:39;;;;;;;26.15;14.30;;;7.60;78.10;;;;;;5008229;28;20038;-77
2021/11/25 09:51:06;;;;;;;25.20;13.80;;;7.60;76.20;;;;;;5027711;28;20061;-77
2021/11/25 09:53:33;;;;;;;27.75;14.73;;;7.60;77.10;;;;;;5035117;28;20037;-76
2021/11/25 09:56:00;;;;;;;30.45;17.15;;;7.60;76.90;;;;;;5023502;28;20068;-77
2021/11/25 09:58:29;;;;;;;25.55;14.50;;;7.60;77.00;;;;;;5023554;28;20834;-77
2021/11/25 10:01:04;;;;;;;25.85;14.65;;;7.70;77.10;;;;;;5019361;28;20041;-79
2021/11/25 10:03:32;;;;;;;24.40;14.98;;;7.70;76.40;;;;;;5022724;28;20899;-78
2021/11/25 10:06:00;;;;;;;24.02;13.75;;;7.70;76.90;;;;;;5030451;28;20042;-79
2021/11/25 10:08:35;;;;;;;26.23;15.25;;;7.70;77.10;;;;;;5022503;28;20030;-79
2021/11/25 10:11:06;;;;;;;26.25;14.48;;;7.80;77.20;;;;;;5015431;28;20048;-79
2021/11/25 10:13:55;;;;;;;26.40;14.98;;;7.80;77.30;;;;;;5023102;28;20156;-77
2021/11/25 10:16:28;;;;;;;30.38;14.88;;;7.90;77.90;;;;;;5020183;28;20033;-80
2021/11/25 10:18:55;;;;;;;26.58;15.95;;;7.90;78.30;;;;;;5021261;28;20083;-78
2021/11/25 10:21:27;;;;;;;27.75;16.23;;;7.90;77.20;;;;;;5023255;28;20113;-78
2021/11/25 10:23:55;;;;;;;26.58;15.38;;;7.80;76.40;;;;;;5037697;28;20109;-78
2021/11/25 10:26:27;;;;;;;26.95;15.05;;;7.80;77.30;;;;;;5022388;28;20048;-79
2021/11/25 10:29:02;;;;;;;27.77;14.85;;;7.80;77.80;;;;;;5031915;28;20116;-79
2021/11/25 10:31:33;;;;;;;28.85;15.88;;;7.70;76.30;;;;;;5015749;28;20037;-77
2021/11/25 10:34:29;;;;;;;26.42;15.13;;;7.60;76.80;;;;;;5022344;28;20040;-73
2021/11/25 10:37:17;;;;;;;36.05;18.98;;;7.60;76.30;;;;;;5023918;28;20111;-80
2021/11/25 10:42:14;;;;;;;28.27;15.55;;;7.50;77.80;;;;;;5012409;28;20034;-80
2021/11/25 10:44:46;;;;;;;27.15;15.05;;;7.50;78.50;;;;;;5022453;28;20068;-79
2021/11/25 10:47:18;;;;;;;27.50;15.15;;;7.50;78.30;;;;;;5019789;28;20056;-79
2021/11/25 10:49:55;;;;;;;27.98;14.85;;;7.60;77.90;;;;;;5015417;28;20117;-79
2021/11/25 10:52:28;;;;;;;26.90;14.27;;;7.60;78.50;;;;;;5027842;28;20044;-78
2021/11/25 10:54:58;;;;;;;25.50;15.18;;;7.60;78.60;;;;;;5028477;28;20037;-79
2021/11/25 10:57:41;;;;;;;29.80;15.98;;;7.60;77.80;;;;;;5027060;28;20029;-79
2021/11/25 11:00:24;;;;;;;29.05;15.90;;;7.60;77.80;;;;;;5019266;28;20033;-79
2021/11/25 11:03:05;;;;;;;25.38;14.13;;;7.70;78.20;;;;;;5023006;28;20195;-81
2021/11/25 11:05:44;;;;;;;28.50;16.42;;;7.60;78.60;;;;;;5024769;28;20060;-75
2021/11/25 11:08:10;;;;;;;31.65;16.75;;;7.60;77.70;;;;;;5016352;28;20095;-76
2021/11/25 11:10:38;;;;;;;28.05;15.65;;;7.70;77.50;;;;;;5015962;28;20771;-79
2021/11/25 11:15:55;;;;;;;28.55;15.40;;;7.70;77.80;;;;;;5017009;28;20034;-79
2021/11/25 11:18:55;;;;;;;26.80;15.50;;;7.70;78.20;;;;;;5017596;28;20144;-79
2021/11/25 11:21:49;;;;;;;28.33;15.30;;;7.70;78.40;;;;;;5015620;28;20044;-75
2021/11/25 11:24:23;;;;;;;29.30;16.23;;;7.70;77.10;;;;;;5018186;28;20029;-76
2021/11/25 11:26:54;;;;;;;27.27;15.70;;;7.70;78.30;;;;;;5021833;28;20025;-76
2021/11/25 11:29:23;;;;;;;34.80;18.42;;;7.70;78.20;;;;;;5018309;28;20091;-76
2021/11/25 11:31:51;;;;;;;28.80;16.02;;;7.80;78.10;;;;;;5012091;28;20117;-82
2021/11/25 11:34:18;;;;;;;30.67;17.38;;;7.80;78.00;;;;;;5023206;28;20064;-79
2021/11/25 11:36:51;;;;;;;28.05;15.98;;;7.80;78.10;;;;;;5018431;28;20514;-82
2021/11/25 11:39:20;;;;;;;28.65;16.17;;;7.80;78.40;;;;;;5018298;28;20405;-81
2021/11/25 11:41:51;;;;;;;28.88;15.95;;;7.80;78.40;;;;;;5034835;28;20075;-80
2021/11/25 11:44:22;;;;;;;36.45;17.48;;;7.80;78.60;;;;;;5018931;28;20056;-79
2021/11/25 11:47:04;;;;;;;34.75;16.95;;;7.80;78.60;;;;;;5022636;28;20040;-79
2021/11/25 11:49:30;;;;;;;27.55;16.17;;;7.80;78.60;;;;;;5022171;28;20116;-79
2021/11/25 11:52:04;;;;;;;28.95;16.40;;;7.80;78.40;;;;;;5019849;28;20026;-80
2021/11/25 11:54:49;;;;;;;29.40;15.85;;;7.80;77.90;;;;;;5022538;28;20041;-79
2021/11/25 11:57:39;;;;;;;36.22;18.05;;;7.80;78.10;;;;;;5019625;28;20022;-79
2021/11/25 12:00:05;;;;;;;29.80;15.88;;;7.80;78.20;;;;;;5022947;28;20570;-78
2021/11/25 12:02:43;;;;;;;24.70;13.85;;;7.70;77.40;;;;;;5020057;28;20042;-79
2021/11/25 12:05:11;;;;;;;24.75;15.10;;;7.60;77.80;;;;;;5019798;28;20030;-80
2021/11/25 12:07:37;;;;;;;35.47;17.70;;;7.60;78.10;;;;;;5022748;28;20131;-79
2021/11/25 12:10:05;;;;;;;37.70;20.83;;;7.60;78.30;;;;;;5011227;28;20033;-79
2021/11/25 12:12:31;;;;;;;33.47;18.52;;;7.60;78.40;;;;;;5018025;28;20030;-79
2021/11/25 12:14:59;;;;;;;38.20;20.45;;;7.60;78.30;;;;;;5020184;28;20037;-78
2021/11/25 12:17:33;;;;;;;30.85;17.13;;;7.60;77.90;;;;;;5021719;28;20808;-78
2021/11/25 12:20:21;;;;;;;54.28;25.20;;;7.60;77.90;;;;;;5014123;28;20041;-77
2021/11/25 12:22:49;;;;;;;43.40;21.77;;;7.60;78.10;;;;;;5020574;28;20704;-78
2021/11/25 12:25:32;;;;;;;41.25;20.65;;;7.60;78.70;;;;;;5017230;28;20018;-77
2021/11/25 12:28:21;;;;;;;40.10;19.40;;;7.60;78.70;;;;;;5028396;28;20108;-77
2021/11/25 12:31:06;;;;;;;30.08;15.77;;;7.50;78.20;;;;;;5017489;28;20041;-80
2021/11/25 12:33:45;;;;;;;27.00;16.15;;;7.50;78.60;;;;;;5030012;28;20804;-78
2021/11/25 12:36:38;;;;;;;57.55;22.38;;;7.50;79.40;;;;;;5025827;28;20034;-79
2021/11/25 12:39:37;;;;;;;40.92;20.02;;;7.50;78.80;;;;;;5025362;28;20106;-75
2021/11/25 12:42:03;;;;;;;43.15;19.85;;;7.40;79.40;;;;;;5025036;28;20025;-79
2021/11/25 12:44:29;;;;;;;36.67;19.95;;;7.50;79.50;;;;;;5015647;28;20029;-78
2021/11/25 12:46:55;;;;;;;32.88;17.17;;;7.60;79.60;;;;;;5018565;28;20719;-76
2021/11/25 12:49:21;;;;;;;47.47;20.13;;;7.60;79.00;;;;;;5021305;28;20026;-74
2021/11/25 12:51:47;;;;;;;58.97;22.90;;;7.50;79.20;;;;;;5023721;28;20428;-75
2021/11/25 12:54:16;;;;;;;43.38;19.42;;;7.50;79.30;;;;;;5017767;28;20568;-76
2021/11/25 12:56:42;;;;;;;56.40;22.70;;;7.40;79.70;;;;;;5014607;28;20048;-76
2021/11/25 12:59:15;;;;;;;45.70;21.20;;;7.40;79.20;;;;;;5023051;28;20026;-76